Time;durP1;ratioP1;P1;durP2;ratioP2;P2;SDS_P1;SDS_P2;PMS_P1;PMS_P2;Temp;Humidity;BMP_temperature;BMP_pressure;BME280_temperature;BME280_humidity;BME280_pressure;Samples;Min_cycle;Max_cycle;Signal;HPM_P1;HPM_P2
2023/03/23 00:01:21;;;;;;;2.33;1.33;;;;;;;12.53;100.00;98160.50;4990199;28;20137;-57
2023/03/23 00:03:49;;;;;;;2.03;1.27;;;;;;;12.53;100.00;98154.25;4990099;28;20026;-57
2023/03/23 00:06:19;;;;;;;2.45;1.02;;;;;;;12.75;100.00;98155.34;4994372;28;20080;-57
2023/03/23 00:08:49;;;;;;;3.35;1.15;;;;;;;12.82;100.00;98147.91;4999319;28;20030;-57
2023/03/23 00:11:15;;;;;;;;;;;;;;;12.90;100.00;98144.84;4989866;28;20105;-57
2023/03/23 00:13:42;;;;;;;5.18;1.40;;;;;;;12.94;100.00;98143.34;4993197;28;20008;-57
2023/03/23 00:16:16;;;;;;;4.20;1.45;;;;;;;12.92;100.00;98148.16;5009296;28;20050;-57
2023/03/23 00:18:52;;;;;;;3.58;1.55;;;;;;;12.88;100.00;98143.44;5005934;28;20104;-57
2023/03/23 00:21:32;;;;;;;2.22;1.27;;;;;;;12.86;100.00;98143.69;4985893;28;20022;-57
2023/03/23 00:23:59;;;;;;;3.17;1.20;;;;;;;12.87;100.00;98148.03;5011558;28;20113;-57
2023/03/23 00:26:28;;;;;;;2.90;1.33;;;;;;;12.88;100.00;98155.13;4992946;28;20034;-57
2023/03/23 00:28:54;;;;;;;2.65;1.10;;;;;;;12.80;100.00;98128.31;4988016;28;20033;-57
2023/03/23 00:31:19;;;;;;;3.17;1.27;;;;;;;12.92;100.00;98153.59;4987847;28;20035;-57
2023/03/23 00:33:44;;;;;;;4.40;1.15;;;;;;;12.90;100.00;98147.56;4991839;28;20116;-57
2023/03/23 00:36:11;;;;;;;3.08;1.23;;;;;;;12.86;100.00;98138.25;4992980;28;20052;-57
2023/03/23 00:38:39;;;;;;;5.05;1.10;;;;;;;12.85;100.00;98138.47;4990214;28;20032;-57
2023/03/23 00:41:06;;;;;;;2.03;1.35;;;;;;;12.84;100.00;98134.13;4988741;28;20026;-57
2023/03/23 00:43:35;;;;;;;3.58;1.33;;;;;;;12.88;100.00;98127.97;4989080;28;20084;-57
2023/03/23 00:46:01;;;;;;;;;;;;;;;12.97;100.00;98128.47;4982324;28;20143;-57
2023/03/23 00:48:28;;;;;;;3.35;1.30;;;;;;;12.96;100.00;98125.97;4987238;28;19914;-57
2023/03/23 00:50:54;;;;;;;1.58;0.85;;;;;;;13.00;100.00;98111.69;4997256;28;20498;-57
2023/03/23 00:53:20;;;;;;;1.50;0.80;;;;;;;13.07;100.00;98115.13;4994526;28;20112;-57
2023/03/23 00:55:47;;;;;;;2.83;0.82;;;;;;;13.11;100.00;98124.44;4984958;28;20033;-57
2023/03/23 00:58:14;;;;;;;2.33;1.00;;;;;;;13.11;100.00;98120.91;4992830;28;20085;-57
2023/03/23 01:00:40;;;;;;;1.50;0.93;;;;;;;13.23;100.00;98120.88;4996502;28;20125;-57
2023/03/23 01:03:07;;;;;;;1.80;0.95;;;;;;;13.24;100.00;98112.50;4995948;28;20100;-57
2023/03/23 01:05:36;;;;;;;3.40;0.80;;;;;;;13.24;100.00;98106.25;5003486;28;20453;-57
2023/03/23 01:08:02;;;;;;;;;;;;;;;13.26;100.00;98106.84;4983794;28;20088;-57
2023/03/23 01:10:32;;;;;;;2.10;1.10;;;;;;;13.31;100.00;98110.53;4991115;28;19921;-57
2023/03/23 01:12:59;;;;;;;1.10;0.93;;;;;;;13.30;100.00;98099.91;4998125;28;20029;-57
2023/03/23 01:15:25;;;;;;;1.73;0.80;;;;;;;13.35;100.00;98108.16;4990159;28;20469;-57
2023/03/23 01:17:50;;;;;;;1.98;0.98;;;;;;;13.32;100.00;98104.03;4991158;28;20040;-57
2023/03/23 01:20:16;;;;;;;2.33;0.88;;;;;;;13.29;100.00;98101.78;4997410;28;20117;-57
2023/03/23 01:22:42;;;;;;;1.88;0.90;;;;;;;13.33;100.00;98094.81;5011041;28;20044;-57
2023/03/23 01:25:10;;;;;;;1.80;0.90;;;;;;;13.29;100.00;98092.81;4997082;28;20462;-57
2023/03/23 01:27:36;;;;;;;2.35;0.88;;;;;;;13.21;100.00;98080.41;4996483;28;20033;-57
2023/03/23 01:30:04;;;;;;;2.15;0.88;;;;;;;13.25;100.00;98086.16;4991508;28;20083;-57
2023/03/23 01:32:29;;;;;;;1.80;0.70;;;;;;;13.25;100.00;98078.84;4999063;28;20022;-57
2023/03/23 01:34:55;;;;;;;2.90;0.93;;;;;;;13.29;100.00;98081.97;4986841;28;20381;-57
2023/03/23 01:37:25;;;;;;;1.80;0.88;;;;;;;13.34;100.00;98080.16;4995624;28;20021;-57
2023/03/23 01:39:54;;;;;;;1.77;0.85;;;;;;;13.34;100.00;98080.16;4998603;28;20030;-57
2023/03/23 01:42:25;;;;;;;5.05;0.95;;;;;;;13.42;100.00;98081.69;4998190;28;20484;-57
2023/03/23 01:44:50;;;;;;;2.33;0.80;;;;;;;13.44;100.00;98081.44;4996987;28;20026;-57
2023/03/23 01:47:20;;;;;;;2.22;0.90;;;;;;;13.36;100.00;98078.03;4989959;28;20044;-57
2023/03/23 01:49:49;;;;;;;1.83;0.90;;;;;;;13.34;100.00;98074.75;4996434;28;20134;-57
2023/03/23 01:52:21;;;;;;;4.13;0.85;;;;;;;13.26;100.00;98071.53;4993566;28;20028;-57
2023/03/23 01:54:48;;;;;;;2.78;1.05;;;;;;;13.27;100.00;98078.66;4995608;28;20025;-57
2023/03/23 01:57:26;;;;;;;5.40;0.90;;;;;;;13.27;100.00;98074.03;4992189;28;20022;-57
2023/03/23 01:59:55;;;;;;;5.53;1.13;;;;;;;13.27;100.00;98074.03;5011648;28;20410;-58
2023/03/23 02:02:22;;;;;;;1.58;0.90;;;;;;;13.19;100.00;98073.56;4996294;28;20033;-57
2023/03/23 02:04:48;;;;;;;5.05;0.80;;;;;;;13.12;100.00;98062.78;5008754;28;20480;-57
2023/03/23 02:07:17;;;;;;;2.60;0.90;;;;;;;13.23;100.00;98067.41;4993517;28;20021;-57
2023/03/23 02:09:42;;;;;;;2.13;1.10;;;;;;;13.24;100.00;98062.78;4993432;28;20060;-57
2023/03/23 02:12:08;;;;;;;1.90;0.80;;;;;;;13.26;100.00;98061.53;4994796;28;20037;-57
2023/03/23 02:14:34;;;;;;;4.05;1.23;;;;;;;13.24;100.00;98069.03;4996325;28;20529;-57
2023/03/23 02:17:02;;;;;;;4.28;0.80;;;;;;;13.27;100.00;98063.16;4993574;28;20030;-57
2023/03/23 02:20:00;;;;;;;2.13;1.05;;;;;;;13.29;100.00;98055.59;4998146;28;20045;-57
2023/03/23 02:22:55;;;;;;;3.72;1.30;;;;;;;13.32;100.00;98057.03;5003780;28;20669;-57
2023/03/23 02:25:50;;;;;;;3.40;1.00;;;;;;;13.31;100.00;98061.63;4990988;28;20072;-57
2023/03/23 02:28:25;;;;;;;3.80;0.98;;;;;;;13.26;100.00;98060.69;4988844;28;20022;-57
2023/03/23 02:31:11;;;;;;;4.28;1.20;;;;;;;13.30;100.00;98061.88;4994456;28;20034;-57
2023/03/23 02:33:45;;;;;;;2.25;1.17;;;;;;;13.29;100.00;98052.91;5006370;28;20024;-57
2023/03/23 02:36:29;;;;;;;2.35;1.13;;;;;;;13.21;100.00;98039.66;4997071;28;20084;-57
2023/03/23 02:39:06;;;;;;;2.05;0.80;;;;;;;13.13;100.00;98040.03;4989333;28;20030;-57
2023/03/23 02:41:39;;;;;;;1.98;1.00;;;;;;;13.12;100.00;98033.75;4993626;28;20029;-57
2023/03/23 02:44:07;;;;;;;1.77;0.95;;;;;;;13.07;100.00;98030.09;4984639;28;20482;-57
2023/03/23 02:46:35;;;;;;;2.38;0.90;;;;;;;13.11;100.00;98018.53;4992648;28;20088;-57
2023/03/23 02:49:02;;;;;;;4.43;1.08;;;;;;;13.06;100.00;98017.59;5000791;28;20075;-57
2023/03/23 02:51:28;;;;;;;2.63;1.00;;;;;;;13.00;100.00;98018.56;4992418;28;20036;-57
2023/03/23 02:53:56;;;;;;;1.88;1.10;;;;;;;13.06;100.00;98012.97;4991829;28;20021;-57
2023/03/23 02:56:24;;;;;;;1.50;0.90;;;;;;;13.04;100.00;98011.56;4992547;28;20172;-57
2023/03/23 02:58:50;;;;;;;1.80;1.20;;;;;;;13.09;100.00;98014.41;4993311;28;20474;-57
2023/03/23 03:01:36;;;;;;;2.17;1.00;;;;;;;13.08;100.00;97999.19;4989332;28;20030;-57
2023/03/23 03:04:23;;;;;;;1.92;0.95;;;;;;;13.02;100.00;98000.13;4993208;28;20363;-57
2023/03/23 03:06:58;;;;;;;2.00;0.90;;;;;;;13.05;100.00;98005.09;4990465;28;20045;-57
2023/03/23 03:09:45;;;;;;;1.90;1.00;;;;;;;13.08;100.00;98004.59;4996219;28;20025;-57
2023/03/23 03:12:44;;;;;;;1.55;0.90;;;;;;;13.14;100.00;98001.75;4991151;28;20053;-57
2023/03/23 03:15:27;;;;;;;2.08;1.10;;;;;;;13.14;100.00;98003.66;4991609;28;20441;-57
2023/03/23 03:18:26;;;;;;;2.05;1.23;;;;;;;13.24;100.00;97995.72;4993047;28;20025;-57
2023/03/23 03:20:58;;;;;;;1.88;0.88;;;;;;;13.27;100.00;98003.41;4986368;28;20128;-57
2023/03/23 03:23:27;;;;;;;4.82;0.98;;;;;;;13.23;100.00;98004.94;5012059;28;20088;-57
2023/03/23 03:25:57;;;;;;;2.67;0.98;;;;;;;13.22;100.00;97995.13;4994449;28;20569;-57
2023/03/23 03:28:24;;;;;;;2.17;1.10;;;;;;;13.23;100.00;98002.22;4991922;28;20050;-57
2023/03/23 03:30:56;;;;;;;2.75;0.82;;;;;;;13.21;100.00;98004.34;4994517;28;20124;-57
2023/03/23 03:33:27;;;;;;;1.75;1.00;;;;;;;13.19;100.00;98003.75;4992866;28;20029;-57
2023/03/23 03:35:58;;;;;;;3.00;0.95;;;;;;;13.12;100.00;97995.72;4988565;28;20030;-57
2023/03/23 03:38:24;;;;;;;1.92;1.20;;;;;;;13.09;100.00;97998.91;4992960;28;20026;-57
2023/03/23 03:40:51;;;;;;;2.25;0.80;;;;;;;13.06;100.00;98006.72;4996670;28;20026;-57
2023/03/23 03:43:16;;;;;;;3.45;1.02;;;;;;;13.07;100.00;98002.94;4995224;28;20021;-57
2023/03/23 03:45:42;;;;;;;2.65;1.17;;;;;;;13.08;100.00;98000.00;4991041;28;20030;-57
2023/03/23 03:48:08;;;;;;;1.45;1.00;;;;;;;13.07;100.00;98000.22;4989115;28;20026;-57
2023/03/23 03:50:33;;;;;;;2.13;1.00;;;;;;;13.04;100.00;98000.72;5016334;23;20065;-74
2023/03/23 03:52:59;;;;;;;4.30;1.20;;;;;;;13.07;100.00;97997.50;5030511;28;20060;-74
2023/03/23 03:55:25;;;;;;;2.05;0.80;;;;;;;13.02;100.00;97987.38;5013825;28;20021;-75
2023/03/23 03:57:50;;;;;;;1.95;1.08;;;;;;;13.12;100.00;97994.91;5020647;28;20030;-75
2023/03/23 04:00:16;;;;;;;2.97;0.93;;;;;;;13.14;100.00;97988.16;5008657;28;20030;-74
2023/03/23 04:02:54;;;;;;;4.75;1.58;;;;;;;13.23;100.00;97982.34;5012359;28;20026;-74
2023/03/23 04:05:21;;;;;;;4.03;1.65;;;;;;;13.15;100.00;97973.53;5001968;28;20491;-73
2023/03/23 04:07:49;;;;;;;3.05;1.10;;;;;;;13.24;100.00;97987.56;5007193;28;20038;-74
2023/03/23 04:10:14;;;;;;;2.53;1.00;;;;;;;13.24;100.00;97995.72;5021715;28;20034;-74
2023/03/23 04:12:40;;;;;;;1.88;0.90;;;;;;;13.26;100.00;98000.91;5012482;28;20377;-74
2023/03/23 04:15:07;;;;;;;1.65;1.00;;;;;;;13.20;100.00;97982.84;5007039;28;20080;-76
2023/03/23 04:17:33;;;;;;;2.10;1.20;;;;;;;13.12;100.00;97978.59;4982676;28;20129;-74
2023/03/23 04:19:59;;;;;;;5.93;1.15;;;;;;;13.16;100.00;97971.66;5009874;28;20065;-74
2023/03/23 04:22:29;;;;;;;4.18;1.08;;;;;;;13.20;100.00;97980.94;5014334;28;20018;-73
2023/03/23 04:24:58;;;;;;;2.08;1.02;;;;;;;13.23;100.00;97976.91;5007998;28;20160;-74
2023/03/23 04:27:24;;;;;;;2.67;1.10;;;;;;;13.19;100.00;97976.59;4989829;28;20034;-74
2023/03/23 04:29:50;;;;;;;1.42;0.98;;;;;;;13.27;100.00;97995.25;5012713;28;20037;-74
2023/03/23 04:32:17;;;;;;;1.02;0.80;;;;;;;13.18;100.00;97991.25;5032067;28;20021;-75
2023/03/23 04:34:43;;;;;;;1.58;1.00;;;;;;;13.22;100.00;97988.88;5021471;28;20499;-74
2023/03/23 04:37:08;;;;;;;4.60;1.10;;;;;;;13.23;100.00;97982.34;5006214;28;20034;-74
2023/03/23 04:39:34;;;;;;;2.47;1.13;;;;;;;13.27;100.00;97984.38;4994432;28;20030;-75
2023/03/23 04:42:00;;;;;;;5.40;1.13;;;;;;;13.29;100.00;97979.53;5008634;28;20087;-74
2023/03/23 04:44:27;;;;;;;3.80;1.20;;;;;;;13.18;100.00;97972.22;4997144;28;20029;-74
2023/03/23 04:46:53;;;;;;;2.40;1.40;;;;;;;13.20;100.00;97978.22;5011182;28;20068;-75
2023/03/23 04:49:21;;;;;;;2.15;1.00;;;;;;;13.20;100.00;97980.13;5012285;28;20029;-74
2023/03/23 04:51:46;;;;;;;2.33;1.17;;;;;;;13.17;100.00;97984.16;5015513;28;20096;-76
2023/03/23 04:54:12;;;;;;;3.08;1.05;;;;;;;13.18;100.00;97991.25;4996181;28;20168;-75
2023/03/23 04:56:38;;;;;;;6.75;1.27;;;;;;;13.25;100.00;97994.63;5009475;22;20010;-63
2023/03/23 04:59:03;;;;;;;4.68;1.50;;;;;;;13.19;100.00;98003.75;5005302;28;20033;-64
2023/03/23 05:01:29;;;;;;;3.55;1.40;;;;;;;13.17;100.00;97997.72;5025030;28;20055;-64
2023/03/23 05:03:54;;;;;;;4.05;1.38;;;;;;;13.17;100.00;97989.56;5005505;28;20385;-64
2023/03/23 05:06:20;;;;;;;2.72;1.55;;;;;;;13.22;100.00;97995.13;4998624;28;20389;-63
2023/03/23 05:08:45;;;;;;;3.28;1.15;;;;;;;13.19;100.00;97998.31;4994387;28;20132;-63
2023/03/23 05:11:11;;;;;;;2.90;1.15;;;;;;;13.16;100.00;97994.19;4995690;28;20022;-63
2023/03/23 05:13:37;;;;;;;3.92;1.20;;;;;;;13.20;100.00;97991.81;4994255;28;20422;-64
2023/03/23 05:16:04;;;;;;;3.80;1.27;;;;;;;13.19;100.00;98000.22;4998652;28;20171;-63
2023/03/23 05:18:31;;;;;;;2.92;1.30;;;;;;;13.18;100.00;97990.41;5013597;28;20493;-63
2023/03/23 05:21:00;;;;;;;1.85;1.10;;;;;;;13.16;100.00;97994.19;4991871;28;20033;-64
2023/03/23 05:23:25;;;;;;;1.58;1.02;;;;;;;13.15;100.00;97983.56;4995137;28;20018;-63
2023/03/23 05:25:55;;;;;;;2.40;1.08;;;;;;;13.19;100.00;97989.34;5011686;28;20040;-63
2023/03/23 05:28:21;;;;;;;1.88;0.98;;;;;;;13.21;100.00;97993.47;5009065;28;20038;-65
2023/03/23 05:30:48;;;;;;;2.67;1.13;;;;;;;13.18;100.00;97999.41;4993423;28;20156;-64
2023/03/23 05:33:13;;;;;;;1.75;1.02;;;;;;;13.21;100.00;98004.34;4991869;28;20033;-64
2023/03/23 05:35:39;;;;;;;2.28;1.20;;;;;;;13.12;100.00;97992.19;4998017;28;20014;-63
2023/03/23 05:38:04;;;;;;;4.35;1.10;;;;;;;13.11;100.00;97990.53;4995139;28;20037;-64
2023/03/23 05:40:31;;;;;;;1.38;1.00;;;;;;;13.09;100.00;97979.91;4998517;28;20036;-64
2023/03/23 05:42:58;;;;;;;3.83;1.33;;;;;;;13.06;100.00;97987.72;4997408;28;20481;-65
2023/03/23 05:45:26;;;;;;;3.00;1.27;;;;;;;13.05;100.00;97988.81;4995500;28;20038;-64
2023/03/23 05:47:51;;;;;;;2.00;1.00;;;;;;;13.01;100.00;97984.91;4993298;28;20385;-64
2023/03/23 05:50:17;;;;;;;2.17;1.20;;;;;;;13.02;100.00;97983.81;4994680;28;20032;-64
2023/03/23 05:52:43;;;;;;;2.22;1.10;;;;;;;13.06;100.00;97987.72;4991086;28;20022;-65
2023/03/23 05:55:09;;;;;;;3.30;1.30;;;;;;;13.06;100.00;97998.59;4996330;28;20022;-64
2023/03/23 05:57:35;;;;;;;2.15;1.15;;;;;;;12.98;100.00;97998.97;4996647;28;20025;-64
2023/03/23 06:00:06;;;;;;;2.17;1.20;;;;;;;12.99;100.00;98004.13;4989553;28;20029;-64
2023/03/23 06:02:31;;;;;;;1.35;0.90;;;;;;;13.03;100.00;98007.22;4993716;28;20133;-64
2023/03/23 06:04:58;;;;;;;3.60;1.20;;;;;;;13.20;100.00;98013.53;4994054;28;20517;-64
2023/03/23 06:07:24;;;;;;;1.83;0.98;;;;;;;13.29;100.00;98014.84;4987450;28;20173;-64
2023/03/23 06:09:51;;;;;;;3.10;1.13;;;;;;;13.37;100.00;98017.19;4987025;28;20107;-64
2023/03/23 06:12:19;;;;;;;2.83;0.95;;;;;;;13.49;100.00;98016.31;4981940;28;20027;-64
2023/03/23 06:14:48;;;;;;;2.47;1.05;;;;;;;13.49;100.00;98028.03;4987770;28;20025;-64
2023/03/23 06:17:16;;;;;;;4.05;1.08;;;;;;;13.50;100.00;98028.88;4986932;28;20465;-64
2023/03/23 06:19:41;;;;;;;2.80;1.30;;;;;;;13.41;100.00;98041.16;4990474;28;20030;-64
2023/03/23 06:22:07;;;;;;;2.40;1.17;;;;;;;13.35;100.00;98035.63;4997320;28;20014;-64
2023/03/23 06:24:32;;;;;;;3.30;1.00;;;;;;;13.38;100.00;98040.56;5002655;28;20024;-64
2023/03/23 06:26:59;;;;;;;2.45;1.20;;;;;;;13.40;100.00;98043.06;4997314;28;20107;-64
2023/03/23 06:29:24;;;;;;;6.25;2.20;;;;;;;13.44;100.00;98046.13;4990542;28;20453;-64
2023/03/23 06:31:55;;;;;;;4.95;2.20;;;;;;;13.49;100.00;98057.09;4993568;28;20132;-64
2023/03/23 06:34:22;;;;;;;5.90;1.27;;;;;;;13.40;100.00;98055.81;4986145;28;20471;-64
2023/03/23 06:36:48;;;;;;;2.78;1.20;;;;;;;13.27;100.00;98062.34;4986822;28;20486;-64
2023/03/23 06:39:13;;;;;;;3.67;1.38;;;;;;;13.20;100.00;98069.75;4987368;28;20108;-64
2023/03/23 06:41:39;;;;;;;3.55;1.20;;;;;;;13.20;100.00;98067.03;4990284;28;20117;-64
2023/03/23 06:44:06;;;;;;;2.05;1.10;;;;;;;13.13;100.00;98059.03;4988231;28;20026;-64
2023/03/23 06:46:32;;;;;;;6.00;1.52;;;;;;;13.11;100.00;98061.16;4993898;28;20052;-64
2023/03/23 06:48:57;;;;;;;3.90;1.10;;;;;;;13.16;100.00;98061.28;4996546;28;20475;-64
2023/03/23 06:51:23;;;;;;;2.40;1.20;;;;;;;13.32;100.00;98076.03;4986291;28;20037;-64
2023/03/23 06:53:48;;;;;;;3.38;0.88;;;;;;;13.54;100.00;98078.94;5006829;28;21171;-64
2023/03/23 06:56:14;;;;;;;1.73;1.00;;;;;;;13.82;100.00;98076.25;4996502;28;20028;-64
2023/03/23 06:58:41;;;;;;;3.97;0.95;;;;;;;14.13;100.00;98076.84;5014602;28;20481;-64
2023/03/23 07:01:08;;;;;;;1.35;0.82;;;;;;;14.42;100.00;98074.06;4995770;28;20491;-65
2023/03/23 07:03:33;;;;;;;2.40;0.88;;;;;;;14.57;100.00;98068.91;4992594;28;20347;-65
2023/03/23 07:05:59;;;;;;;4.80;1.20;;;;;;;14.64;100.00;98071.47;4991084;28;20030;-65
2023/03/23 07:08:26;;;;;;;6.13;1.40;;;;;;;14.56;100.00;98067.25;4982302;28;20061;-65
2023/03/23 07:10:52;;;;;;;2.20;1.00;;;;;;;14.46;100.00;98064.34;4995937;28;20032;-65
2023/03/23 07:13:19;;;;;;;5.55;1.15;;;;;;;14.35;100.00;98071.50;5013207;28;20037;-65
2023/03/23 07:15:45;;;;;;;3.00;1.23;;;;;;;14.30;100.00;98076.84;4982882;28;20038;-64
2023/03/23 07:18:10;;;;;;;5.57;1.38;;;;;;;14.22;100.00;98072.63;4984859;28;20585;-64
2023/03/23 07:20:36;;;;;;;4.88;1.25;;;;;;;14.15;100.00;98071.97;4993391;28;20076;-64
2023/03/23 07:23:02;;;;;;;7.68;1.27;;;;;;;14.09;100.00;98078.38;4994077;28;20091;-64
2023/03/23 07:25:27;;;;;;;4.22;1.33;;;;;;;14.07;100.00;98091.41;4993728;28;20014;-64
2023/03/23 07:27:53;;;;;;;3.65;1.25;;;;;;;14.07;100.00;98096.84;4993805;28;20037;-65
2023/03/23 07:30:19;;;;;;;1.50;1.08;;;;;;;14.09;100.00;98100.13;4986803;28;20060;-64
2023/03/23 07:32:44;;;;;;;1.95;0.90;;;;;;;14.09;100.00;98111.00;4995066;28;20096;-64
2023/03/23 07:35:10;;;;;;;4.25;1.30;;;;;;;14.11;100.00;98116.22;4987768;28;20101;-65
2023/03/23 07:37:36;;;;;;;5.88;1.17;;;;;;;14.11;100.00;98121.66;4991952;28;20053;-64
2023/03/23 07:40:14;;;;;;;6.65;1.13;;;;;;;14.11;100.00;98127.94;4991106;28;20454;-64
2023/03/23 07:42:44;;;;;;;5.37;1.10;;;;;;;14.13;100.00;98130.41;4994386;28;20026;-64
2023/03/23 07:45:11;;;;;;;5.53;1.33;;;;;;;14.25;100.00;98132.03;4989337;28;20107;-63
2023/03/23 07:47:37;;;;;;;7.00;1.20;;;;;;;14.44;100.00;98143.53;4993578;28;20108;-63
2023/03/23 07:50:04;;;;;;;4.38;1.00;;;;;;;14.49;100.00;98148.25;4992230;28;20153;-63
2023/03/23 07:52:30;;;;;;;4.22;1.02;;;;;;;14.65;100.00;98133.03;4990445;28;20087;-63
2023/03/23 07:54:56;;;;;;;6.20;1.40;;;;;;;14.92;100.00;98126.94;4991947;28;20017;-64
2023/03/23 07:57:22;;;;;;;4.78;1.73;;;;;;;15.21;100.00;98116.75;4992357;28;20043;-63
2023/03/23 07:59:47;;;;;;;6.15;1.05;;;;;;;15.46;100.00;98100.75;5007064;28;20109;-63
2023/03/23 08:02:14;;;;;;;8.70;1.10;;;;;;;15.77;100.00;98117.53;4991551;28;20037;-63
2023/03/23 08:04:40;;;;;;;5.80;1.20;;;;;;;16.07;100.00;98128.00;4994157;28;20040;-63
2023/03/23 08:07:05;;;;;;;1.83;1.05;;;;;;;16.21;100.00;98129.22;4992867;28;20366;-63
2023/03/23 08:09:31;;;;;;;3.28;0.90;;;;;;;16.03;100.00;98126.00;4995206;28;20125;-63
2023/03/23 08:11:57;;;;;;;4.18;1.27;;;;;;;15.84;100.00;98137.25;4990359;28;20458;-63
2023/03/23 08:14:26;;;;;;;1.65;1.20;;;;;;;15.91;100.00;98135.16;4994832;28;20049;-63
2023/03/23 08:16:51;;;;;;;6.75;1.40;;;;;;;15.80;100.00;98146.19;4995455;28;20112;-63
2023/03/23 08:19:17;;;;;;;3.55;1.05;;;;;;;15.41;100.00;98148.94;5012896;28;20557;-63
2023/03/23 08:21:43;;;;;;;3.83;1.20;;;;;;;15.52;100.00;98148.81;4996532;28;20022;-63
2023/03/23 08:24:08;;;;;;;2.72;1.00;;;;;;;15.43;100.00;98154.94;4999625;28;20053;-63
2023/03/23 08:26:34;;;;;;;1.92;1.20;;;;;;;15.44;100.00;98153.88;4996019;28;20478;-63
2023/03/23 08:28:59;;;;;;;1.88;1.25;;;;;;;15.41;100.00;98155.19;4997995;28;20084;-63
2023/03/23 08:31:25;;;;;;;2.25;1.08;;;;;;;15.58;100.00;98163.34;4996701;28;20022;-63
2023/03/23 08:33:51;;;;;;;2.53;1.20;;;;;;;15.60;100.00;98146.72;4997628;28;20057;-63
2023/03/23 08:36:17;;;;;;;2.47;1.10;;;;;;;15.55;100.00;98158.38;4995563;28;20048;-63
2023/03/23 08:38:44;;;;;;;2.70;1.30;;;;;;;15.58;100.00;98155.16;4998222;28;20053;-63
2023/03/23 08:41:10;;;;;;;2.33;1.10;;;;;;;15.56;100.00;98165.47;4997031;28;20500;-63
2023/03/23 08:43:35;;;;;;;1.75;1.00;;;;;;;15.58;100.00;98168.78;4996919;28;20032;-63
2023/03/23 08:46:06;;;;;;;2.38;1.10;;;;;;;15.53;100.00;98169.53;4993396;28;20033;-63
2023/03/23 08:48:35;;;;;;;4.45;1.38;;;;;;;15.51;100.00;98158.06;4998741;28;20127;-63
2023/03/23 08:51:00;;;;;;;3.63;1.35;;;;;;;15.15;100.00;98166.78;4994310;28;20354;-63
2023/03/23 08:53:30;;;;;;;1.90;1.20;;;;;;;15.10;100.00;98178.44;4990231;28;20033;-63
2023/03/23 08:55:56;;;;;;;4.32;1.23;;;;;;;15.07;100.00;98171.59;4993374;28;20444;-63
2023/03/23 08:58:22;;;;;;;1.90;1.20;;;;;;;15.07;100.00;98184.38;5013125;28;20544;-64
2023/03/23 09:00:48;;;;;;;3.13;1.00;;;;;;;15.01;100.00;98188.94;4990023;28;20042;-63
2023/03/23 09:03:13;;;;;;;3.17;1.17;;;;;;;14.92;100.00;98182.22;4993565;28;20466;-65
2023/03/23 09:05:42;;;;;;;3.78;1.20;;;;;;;14.76;100.00;98183.03;4996536;28;20034;-63
2023/03/23 09:08:08;;;;;;;;;;;;;;;14.65;100.00;98182.03;5017072;23;20057;-68
2023/03/23 09:10:33;;;;;;;3.42;1.33;;;;;;;14.80;100.00;98182.31;5008486;28;19966;-68
2023/03/23 09:12:59;;;;;;;2.17;1.38;;;;;;;14.86;100.00;98194.13;5013699;28;20025;-68
2023/03/23 09:15:25;;;;;;;3.47;1.10;;;;;;;14.93;100.00;98191.22;5019940;28;20021;-67
2023/03/23 09:17:52;;;;;;;1.90;1.10;;;;;;;14.99;100.00;98191.06;5012768;28;20108;-68
2023/03/23 09:20:24;;;;;;;1.70;1.00;;;;;;;15.23;100.00;98199.91;5015938;28;20025;-68
2023/03/23 09:22:52;;;;;;;4.30;1.10;;;;;;;15.16;100.00;98204.69;5015906;28;20022;-67
2023/03/23 09:25:21;;;;;;;3.58;0.98;;;;;;;15.26;100.00;98210.28;5007093;28;20030;-68
2023/03/23 09:27:57;;;;;;;1.98;0.93;;;;;;;15.28;100.00;98207.34;5017460;28;20029;-68
2023/03/23 09:30:32;;;;;;;3.88;1.17;;;;;;;15.24;100.00;98212.44;5009318;28;20033;-68
2023/03/23 09:33:01;;;;;;;1.38;0.98;;;;;;;15.43;100.00;98210.31;5017107;28;20491;-68
2023/03/23 09:35:27;;;;;;;2.25;1.02;;;;;;;15.47;100.00;98216.88;5013740;28;20049;-68
2023/03/23 09:37:54;;;;;;;5.30;1.00;;;;;;;15.54;100.00;98222.19;5017861;28;20117;-68
2023/03/23 09:40:19;;;;;;;3.42;0.95;;;;;;;15.22;100.00;98230.09;5011291;28;20365;-68
2023/03/23 09:43:17;;;;;;;3.95;1.17;;;;;;;14.87;100.00;98231.97;5003932;28;20032;-68
2023/03/23 09:45:55;;;;;;;6.23;0.93;;;;;;;15.05;100.00;98241.00;5017218;28;20033;-67
2023/03/23 09:48:29;;;;;;;1.40;1.00;;;;;;;14.98;100.00;98246.59;5014611;28;20037;-67
2023/03/23 09:51:24;;;;;;;1.60;0.73;;;;;;;15.24;100.00;98244.31;5008602;28;20393;-68
2023/03/23 09:53:54;;;;;;;1.77;0.65;;;;;;;15.18;100.00;98243.41;5018156;28;20354;-68
2023/03/23 09:56:20;;;;;;;1.52;0.60;;;;;;;14.94;100.00;98248.19;5020676;28;20468;-68
2023/03/23 09:58:56;;;;;;;2.88;0.73;;;;;;;14.94;100.00;98247.34;5021619;28;20053;-69
2023/03/23 10:01:32;;;;;;;1.65;0.70;;;;;;;14.65;100.00;98236.50;5014261;28;20026;-69
2023/03/23 10:04:31;;;;;;;1.30;0.90;;;;;;;14.68;100.00;98236.81;5015797;28;20061;-68
2023/03/23 10:07:13;;;;;;;;;;;;;;;15.02;100.00;98249.69;4999331;28;20045;-68
2023/03/23 10:09:41;;;;;;;2.72;0.63;;;;;;;15.07;100.00;98261.50;5022125;28;20107;-68
2023/03/23 10:12:32;;;;;;;1.70;0.80;;;;;;;14.98;100.00;98260.22;5016012;28;20036;-69
2023/03/23 10:15:03;;;;;;;1.58;0.70;;;;;;;15.12;100.00;98252.59;5017453;28;20465;-68
2023/03/23 10:17:47;;;;;;;3.55;0.60;;;;;;;15.25;100.00;98265.06;5018352;28;20079;-68
2023/03/23 10:20:52;;;;;;;1.92;0.80;;;;;;;14.82;100.00;98275.47;5023928;28;20029;-69
2023/03/23 10:23:19;;;;;;;1.13;0.57;;;;;;;15.07;100.00;98268.84;4939549;29;20090;-68
2023/03/23 10:26:08;;;;;;;1.00;0.60;;;;;;;15.05;100.00;98263.63;4923936;29;20088;-67
2023/03/23 10:28:44;;;;;;;2.45;0.70;;;;;;;15.09;100.00;98270.25;4997273;28;20037;-67
2023/03/23 10:31:18;;;;;;;2.58;0.82;;;;;;;15.15;100.00;98275.78;5019571;28;20033;-67
2023/03/23 10:33:47;;;;;;;1.52;0.60;;;;;;;15.49;100.00;98282.91;5018781;28;20031;-67
2023/03/23 10:36:29;;;;;;;0.93;0.60;;;;;;;15.61;100.00;98282.81;5023143;28;20627;-67
2023/03/23 10:39:17;;;;;;;3.35;1.10;;;;;;;15.55;100.00;98279.19;5029818;28;20033;-67
2023/03/23 10:41:43;;;;;;;2.17;0.90;;;;;;;16.07;100.00;98275.34;5020010;28;20037;-69
2023/03/23 10:44:13;;;;;;;1.23;0.75;;;;;;;17.00;100.00;98275.41;5020787;28;20469;-67
2023/03/23 10:46:49;;;;;;;3.65;0.90;;;;;;;17.74;100.00;98265.63;5012645;28;20029;-67
2023/03/23 10:49:39;;;;;;;2.13;0.68;;;;;;;17.91;100.00;98260.00;5016888;28;20065;-69
2023/03/23 10:52:17;;;;;;;0.80;0.50;;;;;;;18.57;100.00;98265.78;4998647;28;20029;-67
2023/03/23 10:54:55;;;;;;;1.10;0.70;;;;;;;18.46;100.00;98260.56;5029674;28;20076;-68
2023/03/23 10:57:33;;;;;;;2.55;0.68;;;;;;;17.47;100.00;98265.69;5015138;28;20037;-67
2023/03/23 11:00:16;;;;;;;2.05;0.70;;;;;;;17.33;100.00;98265.28;5012669;28;20042;-69
2023/03/23 11:02:47;;;;;;;2.47;0.90;;;;;;;16.94;100.00;98270.13;5016937;28;20029;-70
2023/03/23 11:05:27;;;;;;;5.28;0.60;;;;;;;16.44;100.00;98281.00;5017232;28;20046;-62
2023/03/23 11:07:55;;;;;;;1.02;0.77;;;;;;;16.27;100.00;98269.34;5014118;28;20028;-63
2023/03/23 11:10:26;;;;;;;3.03;0.60;;;;;;;15.95;100.00;98269.16;5012945;28;20033;-60
2023/03/23 11:12:52;;;;;;;2.97;0.93;;;;;;;16.29;100.00;98249.97;5026447;28;20033;-61
2023/03/23 11:15:27;;;;;;;1.20;0.77;;;;;;;15.54;100.00;98266.63;5014693;28;20029;-60
2023/03/23 11:18:10;;;;;;;2.00;0.70;;;;;;;15.88;100.00;98261.16;5015276;28;20048;-61
2023/03/23 11:20:39;;;;;;;1.38;0.60;;;;;;;16.24;100.00;98258.09;5030065;28;20412;-61
2023/03/23 11:23:20;;;;;;;1.92;0.70;;;;;;;16.11;100.00;98253.81;5015793;28;20389;-60
2023/03/23 11:26:12;;;;;;;2.78;0.80;;;;;;;15.87;100.00;98248.59;5012639;28;20030;-67
2023/03/23 11:28:51;;;;;;;0.90;0.68;;;;;;;15.48;100.00;98245.81;4994117;28;20107;-66
2023/03/23 11:31:22;;;;;;;5.30;0.60;;;;;;;16.04;100.00;98243.09;5006452;28;20036;-67
2023/03/23 11:33:53;;;;;;;2.47;0.70;;;;;;;15.97;100.00;98243.28;5014776;28;20413;-67
2023/03/23 11:36:19;;;;;;;1.15;0.80;;;;;;;16.27;100.00;98233.00;5014965;28;20032;-68
2023/03/23 11:38:45;;;;;;;0.90;0.57;;;;;;;16.50;100.00;98243.66;5027445;28;20076;-67